Southwold, United Kingdom
Current Conditions -  °F | °C
As of 6:20 AM on Monday 22 Dec 2014 (Local Time) from EGSD Reporting Station
Broken Clouds Broken Clouds  
Wind Chill: 55°   Ceiling: 1900
Heat Index: 55°   Visibility: 6mi
Dew Point: 52°   Wind: 30mph
Humidity: 88%   Direction: 240°WSW
Pressure: 29.91"   Gusts: 43mph
Location:  52.33°N, 1.68°E
Report Text: EGSD 220620Z 24026G37KT 9999 BKN019 13/11 Q1013
Loading
Personal Weather Stations






























Interactive Weather Map New forecast layout! Learn more

10-Day Weather Forecast

Advertisements
Track Severe Weather on mobile